sensor_id;sensor_type;location;lat;lon;timestamp;temperature;humidity
24468;DHT22;12634;50.852;5.676;2023-08-17T00:00:03;19.50;99.90
24468;DHT22;12634;50.852;5.676;2023-08-17T00:02:34;19.50;99.90
24468;DHT22;12634;50.852;5.676;2023-08-17T00:05:01;19.50;99.90
24468;DHT22;12634;50.852;5.676;2023-08-17T00:07:28;19.50;99.90
24468;DHT22;12634;50.852;5.676;2023-08-17T00:09:55;19.50;99.90
24468;DHT22;12634;50.852;5.676;2023-08-17T00:12:22;19.50;99.90
24468;DHT22;12634;50.852;5.676;2023-08-17T00:14:51;19.50;99.90
24468;DHT22;12634;50.852;5.676;2023-08-17T00:17:19;19.50;99.90
24468;DHT22;12634;50.852;5.676;2023-08-17T00:19:46;19.50;99.90
24468;DHT22;12634;50.852;5.676;2023-08-17T00:22:13;19.50;99.90
24468;DHT22;12634;50.852;5.676;2023-08-17T00:24:41;19.50;99.90
24468;DHT22;12634;50.852;5.676;2023-08-17T00:27:10;19.60;99.90
24468;DHT22;12634;50.852;5.676;2023-08-17T00:29:37;19.50;99.90
24468;DHT22;12634;50.852;5.676;2023-08-17T00:32:06;19.50;99.90
24468;DHT22;12634;50.852;5.676;2023-08-17T00:34:33;19.50;99.90
24468;DHT22;12634;50.852;5.676;2023-08-17T00:37:00;19.40;99.90
24468;DHT22;12634;50.852;5.676;2023-08-17T00:39:27;19.40;99.90
24468;DHT22;12634;50.852;5.676;2023-08-17T00:41:54;19.40;99.90
24468;DHT22;12634;50.852;5.676;2023-08-17T00:44:22;19.40;99.90
24468;DHT22;12634;50.852;5.676;2023-08-17T00:46:49;19.40;99.90
24468;DHT22;12634;50.852;5.676;2023-08-17T00:49:18;19.40;99.90
24468;DHT22;12634;50.852;5.676;2023-08-17T00:51:45;19.40;99.90
24468;DHT22;12634;50.852;5.676;2023-08-17T00:54:12;19.40;99.90
24468;DHT22;12634;50.852;5.676;2023-08-17T00:56:40;19.30;99.90
24468;DHT22;12634;50.852;5.676;2023-08-17T00:59:07;19.30;99.90
24468;DHT22;12634;50.852;5.676;2023-08-17T01:01:35;19.30;99.90
24468;DHT22;12634;50.852;5.676;2023-08-17T01:04:03;19.30;99.90
24468;DHT22;12634;50.852;5.676;2023-08-17T01:06:31;19.30;99.90
24468;DHT22;12634;50.852;5.676;2023-08-17T01:08:58;19.20;99.90
24468;DHT22;12634;50.852;5.676;2023-08-17T01:11:32;19.30;99.90
24468;DHT22;12634;50.852;5.676;2023-08-17T01:14:05;19.20;99.90
24468;DHT22;12634;50.852;5.676;2023-08-17T01:16:39;19.20;99.90
24468;DHT22;12634;50.852;5.676;2023-08-17T01:19:08;19.20;99.90
24468;DHT22;12634;50.852;5.676;2023-08-17T01:21:41;19.20;99.90
24468;DHT22;12634;50.852;5.676;2023-08-17T01:24:11;19.10;99.90
24468;DHT22;12634;50.852;5.676;2023-08-17T01:26:38;19.10;99.90
24468;DHT22;12634;50.852;5.676;2023-08-17T01:29:05;19.10;99.90
24468;DHT22;12634;50.852;5.676;2023-08-17T01:31:39;19.10;99.90
24468;DHT22;12634;50.852;5.676;2023-08-17T01:34:08;19.10;99.90
24468;DHT22;12634;50.852;5.676;2023-08-17T01:36:40;19.10;99.90
24468;DHT22;12634;50.852;5.676;2023-08-17T01:39:12;19.10;99.90
24468;DHT22;12634;50.852;5.676;2023-08-17T01:41:41;19.10;99.90
24468;DHT22;12634;50.852;5.676;2023-08-17T01:44:09;19.00;99.90
24468;DHT22;12634;50.852;5.676;2023-08-17T01:46:37;19.00;99.90
24468;DHT22;12634;50.852;5.676;2023-08-17T01:49:04;19.00;99.90
24468;DHT22;12634;50.852;5.676;2023-08-17T01:51:32;19.00;99.90
24468;DHT22;12634;50.852;5.676;2023-08-17T01:53:59;18.90;99.90
24468;DHT22;12634;50.852;5.676;2023-08-17T01:56:27;18.90;99.90
24468;DHT22;12634;50.852;5.676;2023-08-17T01:58:54;18.90;99.90
24468;DHT22;12634;50.852;5.676;2023-08-17T02:01:22;18.90;99.90
24468;DHT22;12634;50.852;5.676;2023-08-17T02:03:49;18.90;99.90
24468;DHT22;12634;50.852;5.676;2023-08-17T02:06:16;18.80;99.90
24468;DHT22;12634;50.852;5.676;2023-08-17T02:08:45;18.80;99.90
24468;DHT22;12634;50.852;5.676;2023-08-17T02:11:12;18.80;99.90
24468;DHT22;12634;50.852;5.676;2023-08-17T02:13:41;18.80;99.90
24468;DHT22;12634;50.852;5.676;2023-08-17T02:16:08;18.80;99.90
24468;DHT22;12634;50.852;5.676;2023-08-17T02:18:35;18.80;99.90
24468;DHT22;12634;50.852;5.676;2023-08-17T02:21:02;18.80;99.90
24468;DHT22;12634;50.852;5.676;2023-08-17T02:23:29;18.80;99.90
24468;DHT22;12634;50.852;5.676;2023-08-17T02:25:56;18.80;99.90
24468;DHT22;12634;50.852;5.676;2023-08-17T02:28:24;18.80;99.90
24468;DHT22;12634;50.852;5.676;2023-08-17T02:30:57;18.70;99.90
24468;DHT22;12634;50.852;5.676;2023-08-17T02:33:24;18.70;99.90
24468;DHT22;12634;50.852;5.676;2023-08-17T02:35:52;18.80;99.90
24468;DHT22;12634;50.852;5.676;2023-08-17T02:38:19;18.80;99.90
24468;DHT22;12634;50.852;5.676;2023-08-17T02:40:48;18.70;99.90
24468;DHT22;12634;50.852;5.676;2023-08-17T02:43:16;18.70;99.90
24468;DHT22;12634;50.852;5.676;2023-08-17T02:45:43;18.70;99.90
24468;DHT22;12634;50.852;5.676;2023-08-17T02:48:11;18.70;99.90
24468;DHT22;12634;50.852;5.676;2023-08-17T02:50:39;18.70;99.90
24468;DHT22;12634;50.852;5.676;2023-08-17T02:53:06;18.60;99.90
24468;DHT22;12634;50.852;5.676;2023-08-17T02:55:33;18.60;99.90
24468;DHT22;12634;50.852;5.676;2023-08-17T02:58:00;18.60;99.90
24468;DHT22;12634;50.852;5.676;2023-08-17T03:00:28;18.50;99.90
24468;DHT22;12634;50.852;5.676;2023-08-17T03:02:55;18.50;99.90
24468;DHT22;12634;50.852;5.676;2023-08-17T03:05:24;18.50;99.90
24468;DHT22;12634;50.852;5.676;2023-08-17T03:07:51;18.50;99.90
24468;DHT22;12634;50.852;5.676;2023-08-17T03:10:18;18.40;99.90
24468;DHT22;12634;50.852;5.676;2023-08-17T03:12:45;18.30;99.90
24468;DHT22;12634;50.852;5.676;2023-08-17T03:15:13;18.30;99.90
24468;DHT22;12634;50.852;5.676;2023-08-17T03:17:40;18.20;99.90
24468;DHT22;12634;50.852;5.676;2023-08-17T03:20:08;18.20;99.90
24468;DHT22;12634;50.852;5.676;2023-08-17T03:22:37;18.20;99.90
24468;DHT22;12634;50.852;5.676;2023-08-17T03:25:05;18.20;99.90
24468;DHT22;12634;50.852;5.676;2023-08-17T03:27:32;18.10;99.90
24468;DHT22;12634;50.852;5.676;2023-08-17T03:29:59;18.20;99.90
24468;DHT22;12634;50.852;5.676;2023-08-17T03:32:27;18.10;99.90
24468;DHT22;12634;50.852;5.676;2023-08-17T03:34:54;18.10;99.90
24468;DHT22;12634;50.852;5.676;2023-08-17T03:37:21;18.10;99.90
24468;DHT22;12634;50.852;5.676;2023-08-17T03:39:50;18.20;99.90
24468;DHT22;12634;50.852;5.676;2023-08-17T03:42:17;18.20;99.90
24468;DHT22;12634;50.852;5.676;2023-08-17T03:44:44;18.20;99.90
24468;DHT22;12634;50.852;5.676;2023-08-17T03:47:11;18.20;99.90
24468;DHT22;12634;50.852;5.676;2023-08-17T03:49:38;18.20;99.90
24468;DHT22;12634;50.852;5.676;2023-08-17T03:52:05;18.20;99.90
24468;DHT22;12634;50.852;5.676;2023-08-17T03:54:33;18.20;99.90
24468;DHT22;12634;50.852;5.676;2023-08-17T03:57:01;18.20;99.90
24468;DHT22;12634;50.852;5.676;2023-08-17T03:59:28;18.20;99.90
24468;DHT22;12634;50.852;5.676;2023-08-17T04:01:55;18.20;99.90
24468;DHT22;12634;50.852;5.676;2023-08-17T04:04:22;18.20;99.90
24468;DHT22;12634;50.852;5.676;2023-08-17T04:06:50;18.20;99.90
24468;DHT22;12634;50.852;5.676;2023-08-17T04:09:17;18.20;99.90
24468;DHT22;12634;50.852;5.676;2023-08-17T04:11:45;18.20;99.90
24468;DHT22;12634;50.852;5.676;2023-08-17T04:14:13;18.20;99.90
24468;DHT22;12634;50.852;5.676;2023-08-17T04:16:41;18.20;99.90
24468;DHT22;12634;50.852;5.676;2023-08-17T04:19:08;18.20;99.90
24468;DHT22;12634;50.852;5.676;2023-08-17T04:21:35;18.20;99.90
24468;DHT22;12634;50.852;5.676;2023-08-17T04:24:03;18.20;99.90
24468;DHT22;12634;50.852;5.676;2023-08-17T04:26:30;18.20;99.90
24468;DHT22;12634;50.852;5.676;2023-08-17T04:28:57;18.10;99.90
24468;DHT22;12634;50.852;5.676;2023-08-17T04:31:26;18.10;99.90
24468;DHT22;12634;50.852;5.676;2023-08-17T04:33:53;18.10;99.90
24468;DHT22;12634;50.852;5.676;2023-08-17T04:36:20;18.10;99.90
24468;DHT22;12634;50.852;5.676;2023-08-17T04:38:48;18.20;99.90
24468;DHT22;12634;50.852;5.676;2023-08-17T04:41:15;18.10;99.90
24468;DHT22;12634;50.852;5.676;2023-08-17T04:43:42;18.10;99.90
24468;DHT22;12634;50.852;5.676;2023-08-17T04:46:12;18.10;99.90
24468;DHT22;12634;50.852;5.676;2023-08-17T04:48:41;18.10;99.90
24468;DHT22;12634;50.852;5.676;2023-08-17T04:51:08;18.10;99.90
24468;DHT22;12634;50.852;5.676;2023-08-17T04:53:35;18.10;99.90
24468;DHT22;12634;50.852;5.676;2023-08-17T04:56:03;18.10;99.90
24468;DHT22;12634;50.852;5.676;2023-08-17T04:58:30;18.10;99.90
24468;DHT22;12634;50.852;5.676;2023-08-17T05:00:59;18.10;99.90
24468;DHT22;12634;50.852;5.676;2023-08-17T05:03:26;18.10;99.90
24468;DHT22;12634;50.852;5.676;2023-08-17T05:05:55;18.10;99.90
24468;DHT22;12634;50.852;5.676;2023-08-17T05:08:22;18.10;99.90
24468;DHT22;12634;50.852;5.676;2023-08-17T05:10:49;18.10;99.90
24468;DHT22;12634;50.852;5.676;2023-08-17T05:13:16;18.20;99.90
24468;DHT22;12634;50.852;5.676;2023-08-17T05:15:43;18.20;99.90
24468;DHT22;12634;50.852;5.676;2023-08-17T05:18:11;18.10;99.90
24468;DHT22;12634;50.852;5.676;2023-08-17T05:20:38;18.10;99.90
24468;DHT22;12634;50.852;5.676;2023-08-17T05:23:07;18.10;99.90
24468;DHT22;12634;50.852;5.676;2023-08-17T05:25:34;18.10;99.90
24468;DHT22;12634;50.852;5.676;2023-08-17T05:28:01;18.10;99.90
24468;DHT22;12634;50.852;5.676;2023-08-17T05:30:28;18.10;99.90
24468;DHT22;12634;50.852;5.676;2023-08-17T05:32:55;18.10;99.90
24468;DHT22;12634;50.852;5.676;2023-08-17T05:35:22;18.10;99.90
24468;DHT22;12634;50.852;5.676;2023-08-17T05:37:49;18.10;99.90
24468;DHT22;12634;50.852;5.676;2023-08-17T05:40:18;18.10;99.90
24468;DHT22;12634;50.852;5.676;2023-08-17T05:42:45;18.10;99.90
24468;DHT22;12634;50.852;5.676;2023-08-17T05:45:13;18.10;99.90
24468;DHT22;12634;50.852;5.676;2023-08-17T05:47:40;18.10;99.90
24468;DHT22;12634;50.852;5.676;2023-08-17T05:50:07;18.10;99.90
24468;DHT22;12634;50.852;5.676;2023-08-17T05:52:35;18.10;99.90
24468;DHT22;12634;50.852;5.676;2023-08-17T05:55:03;18.10;99.90
24468;DHT22;12634;50.852;5.676;2023-08-17T05:57:32;18.20;99.90
24468;DHT22;12634;50.852;5.676;2023-08-17T05:59:59;18.10;99.90
24468;DHT22;12634;50.852;5.676;2023-08-17T06:02:26;18.10;99.90
24468;DHT22;12634;50.852;5.676;2023-08-17T06:04:53;18.10;99.90
24468;DHT22;12634;50.852;5.676;2023-08-17T06:07:20;18.20;99.90
24468;DHT22;12634;50.852;5.676;2023-08-17T06:09:48;18.20;99.90
24468;DHT22;12634;50.852;5.676;2023-08-17T06:12:15;18.30;99.90
24468;DHT22;12634;50.852;5.676;2023-08-17T06:14:44;18.40;99.90
24468;DHT22;12634;50.852;5.676;2023-08-17T06:17:12;18.40;99.90
24468;DHT22;12634;50.852;5.676;2023-08-17T06:19:39;18.50;99.90
24468;DHT22;12634;50.852;5.676;2023-08-17T06:22:06;18.40;99.90
24468;DHT22;12634;50.852;5.676;2023-08-17T06:24:33;18.40;99.90
24468;DHT22;12634;50.852;5.676;2023-08-17T06:27:00;18.30;99.90
24468;DHT22;12634;50.852;5.676;2023-08-17T06:29:27;18.30;99.90
24468;DHT22;12634;50.852;5.676;2023-08-17T06:31:56;18.50;99.90
24468;DHT22;12634;50.852;5.676;2023-08-17T06:34:23;18.60;99.90
24468;DHT22;12634;50.852;5.676;2023-08-17T06:36:58;18.50;99.90
24468;DHT22;12634;50.852;5.676;2023-08-17T06:39:25;18.60;99.90
24468;DHT22;12634;50.852;5.676;2023-08-17T06:41:52;18.60;99.90
24468;DHT22;12634;50.852;5.676;2023-08-17T06:44:19;18.60;99.90
24468;DHT22;12634;50.852;5.676;2023-08-17T06:46:47;18.70;99.90
24468;DHT22;12634;50.852;5.676;2023-08-17T06:49:16;18.60;99.90
24468;DHT22;12634;50.852;5.676;2023-08-17T06:51:43;18.60;99.90
24468;DHT22;12634;50.852;5.676;2023-08-17T06:54:10;18.60;99.90
24468;DHT22;12634;50.852;5.676;2023-08-17T06:56:37;18.70;99.90
24468;DHT22;12634;50.852;5.676;2023-08-17T06:59:04;18.80;99.90
24468;DHT22;12634;50.852;5.676;2023-08-17T07:01:32;19.00;99.90
24468;DHT22;12634;50.852;5.676;2023-08-17T07:03:59;19.00;99.90
24468;DHT22;12634;50.852;5.676;2023-08-17T07:06:28;19.00;99.90
24468;DHT22;12634;50.852;5.676;2023-08-17T07:08:55;19.00;99.90
24468;DHT22;12634;50.852;5.676;2023-08-17T07:11:23;19.10;99.90
24468;DHT22;12634;50.852;5.676;2023-08-17T07:13:51;19.10;99.90
24468;DHT22;12634;50.852;5.676;2023-08-17T07:16:18;19.20;99.90
24468;DHT22;12634;50.852;5.676;2023-08-17T07:18:46;19.20;99.90
24468;DHT22;12634;50.852;5.676;2023-08-17T07:21:13;19.00;99.90
24468;DHT22;12634;50.852;5.676;2023-08-17T07:23:44;19.10;99.90
24468;DHT22;12634;50.852;5.676;2023-08-17T07:26:12;19.10;99.90
24468;DHT22;12634;50.852;5.676;2023-08-17T07:28:40;19.00;99.90
24468;DHT22;12634;50.852;5.676;2023-08-17T07:31:07;19.00;99.90
24468;DHT22;12634;50.852;5.676;2023-08-17T07:33:34;19.00;99.90
24468;DHT22;12634;50.852;5.676;2023-08-17T07:36:01;19.10;99.90
24468;DHT22;12634;50.852;5.676;2023-08-17T07:38:28;19.30;99.90
24468;DHT22;12634;50.852;5.676;2023-08-17T07:40:57;19.20;99.90
24468;DHT22;12634;50.852;5.676;2023-08-17T07:43:24;19.30;99.90
24468;DHT22;12634;50.852;5.676;2023-08-17T07:45:55;19.40;99.90
24468;DHT22;12634;50.852;5.676;2023-08-17T07:48:22;19.30;99.90
24468;DHT22;12634;50.852;5.676;2023-08-17T07:50:50;19.30;99.90
24468;DHT22;12634;50.852;5.676;2023-08-17T07:53:17;19.40;99.90
24468;DHT22;12634;50.852;5.676;2023-08-17T07:55:45;19.60;99.90
24468;DHT22;12634;50.852;5.676;2023-08-17T07:58:13;20.00;99.90
24468;DHT22;12634;50.852;5.676;2023-08-17T08:00:40;20.30;99.90
24468;DHT22;12634;50.852;5.676;2023-08-17T08:03:08;20.30;99.90
24468;DHT22;12634;50.852;5.676;2023-08-17T08:05:35;20.40;99.90
24468;DHT22;12634;50.852;5.676;2023-08-17T08:08:03;20.50;99.90
24468;DHT22;12634;50.852;5.676;2023-08-17T08:10:30;20.70;99.90
24468;DHT22;12634;50.852;5.676;2023-08-17T08:12:57;20.70;99.90
24468;DHT22;12634;50.852;5.676;2023-08-17T08:15:26;20.70;99.90
24468;DHT22;12634;50.852;5.676;2023-08-17T08:17:53;20.70;99.90
24468;DHT22;12634;50.852;5.676;2023-08-17T08:20:20;20.60;99.90
24468;DHT22;12634;50.852;5.676;2023-08-17T08:22:48;21.00;99.90
24468;DHT22;12634;50.852;5.676;2023-08-17T08:25:15;20.80;99.90
24468;DHT22;12634;50.852;5.676;2023-08-17T08:27:42;20.70;99.90
24468;DHT22;12634;50.852;5.676;2023-08-17T08:30:09;20.50;99.90
24468;DHT22;12634;50.852;5.676;2023-08-17T08:32:38;20.30;99.90
24468;DHT22;12634;50.852;5.676;2023-08-17T08:35:06;20.60;99.90
24468;DHT22;12634;50.852;5.676;2023-08-17T08:37:33;20.90;99.90
24468;DHT22;12634;50.852;5.676;2023-08-17T08:40:00;20.90;99.90
24468;DHT22;12634;50.852;5.676;2023-08-17T08:42:28;21.10;99.90
24468;DHT22;12634;50.852;5.676;2023-08-17T08:44:55;21.00;99.90
24468;DHT22;12634;50.852;5.676;2023-08-17T08:47:23;20.50;99.90
24468;DHT22;12634;50.852;5.676;2023-08-17T08:49:59;20.50;99.90
24468;DHT22;12634;50.852;5.676;2023-08-17T08:52:34;20.60;99.90
24468;DHT22;12634;50.852;5.676;2023-08-17T08:55:10;20.80;99.90
24468;DHT22;12634;50.852;5.676;2023-08-17T08:57:39;21.10;99.90
24468;DHT22;12634;50.852;5.676;2023-08-17T09:00:07;21.30;99.90
24468;DHT22;12634;50.852;5.676;2023-08-17T09:02:35;21.40;99.90
24468;DHT22;12634;50.852;5.676;2023-08-17T09:05:06;21.20;99.90
24468;DHT22;12634;50.852;5.676;2023-08-17T09:07:33;21.00;99.90
24468;DHT22;12634;50.852;5.676;2023-08-17T09:10:02;21.00;99.90
24468;DHT22;12634;50.852;5.676;2023-08-17T09:12:30;21.00;99.90
24468;DHT22;12634;50.852;5.676;2023-08-17T09:14:57;21.10;99.90
24468;DHT22;12634;50.852;5.676;2023-08-17T09:17:24;21.10;99.90
24468;DHT22;12634;50.852;5.676;2023-08-17T09:19:52;21.20;99.90
24468;DHT22;12634;50.852;5.676;2023-08-17T09:22:24;21.00;99.90
24468;DHT22;12634;50.852;5.676;2023-08-17T09:24:51;20.70;99.90
24468;DHT22;12634;50.852;5.676;2023-08-17T09:27:20;20.60;99.90
24468;DHT22;12634;50.852;5.676;2023-08-17T09:29:47;20.40;99.90
24468;DHT22;12634;50.852;5.676;2023-08-17T09:32:15;20.20;99.90
24468;DHT22;12634;50.852;5.676;2023-08-17T09:34:44;20.20;99.90
24468;DHT22;12634;50.852;5.676;2023-08-17T09:37:12;20.30;99.90
24468;DHT22;12634;50.852;5.676;2023-08-17T09:39:41;20.70;99.90
24468;DHT22;12634;50.852;5.676;2023-08-17T09:42:09;20.90;99.90
24468;DHT22;12634;50.852;5.676;2023-08-17T09:44:37;21.70;99.90
24468;DHT22;12634;50.852;5.676;2023-08-17T09:47:05;22.10;99.90
24468;DHT22;12634;50.852;5.676;2023-08-17T09:49:33;22.00;99.90
24468;DHT22;12634;50.852;5.676;2023-08-17T09:52:00;21.90;99.90
24468;DHT22;12634;50.852;5.676;2023-08-17T09:54:30;21.80;99.90
24468;DHT22;12634;50.852;5.676;2023-08-17T09:56:59;22.40;99.90
24468;DHT22;12634;50.852;5.676;2023-08-17T09:59:26;22.10;99.90
24468;DHT22;12634;50.852;5.676;2023-08-17T10:01:54;21.90;99.90
24468;DHT22;12634;50.852;5.676;2023-08-17T10:04:22;22.10;99.90
24468;DHT22;12634;50.852;5.676;2023-08-17T10:06:52;22.40;99.90
24468;DHT22;12634;50.852;5.676;2023-08-17T10:09:24;22.80;99.90
24468;DHT22;12634;50.852;5.676;2023-08-17T10:11:53;23.00;99.90
24468;DHT22;12634;50.852;5.676;2023-08-17T10:14:28;23.20;99.90
24468;DHT22;12634;50.852;5.676;2023-08-17T10:16:57;22.90;99.90
24468;DHT22;12634;50.852;5.676;2023-08-17T10:19:33;23.00;99.90
24468;DHT22;12634;50.852;5.676;2023-08-17T10:22:10;23.10;99.90
24468;DHT22;12634;50.852;5.676;2023-08-17T10:24:39;23.10;99.90
24468;DHT22;12634;50.852;5.676;2023-08-17T10:27:07;23.30;99.90
24468;DHT22;12634;50.852;5.676;2023-08-17T10:29:38;23.60;99.90
24468;DHT22;12634;50.852;5.676;2023-08-17T10:32:07;23.90;99.90
24468;DHT22;12634;50.852;5.676;2023-08-17T10:34:34;24.00;99.90
24468;DHT22;12634;50.852;5.676;2023-08-17T10:37:02;23.90;99.90
24468;DHT22;12634;50.852;5.676;2023-08-17T10:39:30;24.10;99.90
24468;DHT22;12634;50.852;5.676;2023-08-17T10:41:59;24.20;99.90
24468;DHT22;12634;50.852;5.676;2023-08-17T10:44:43;23.90;99.90
24468;DHT22;12634;50.852;5.676;2023-08-17T10:47:31;23.50;99.90
24468;DHT22;12634;50.852;5.676;2023-08-17T10:50:02;23.00;99.90
24468;DHT22;12634;50.852;5.676;2023-08-17T10:52:31;23.10;99.90
24468;DHT22;12634;50.852;5.676;2023-08-17T10:55:04;22.90;99.90
24468;DHT22;12634;50.852;5.676;2023-08-17T10:57:33;22.80;99.90
24468;DHT22;12634;50.852;5.676;2023-08-17T11:00:19;22.80;99.90
24468;DHT22;12634;50.852;5.676;2023-08-17T11:02:57;22.60;99.90
24468;DHT22;12634;50.852;5.676;2023-08-17T11:05:39;22.70;99.90
24468;DHT22;12634;50.852;5.676;2023-08-17T11:08:07;22.60;99.90
24468;DHT22;12634;50.852;5.676;2023-08-17T11:10:36;22.40;99.90
24468;DHT22;12634;50.852;5.676;2023-08-17T11:13:04;22.60;99.90
24468;DHT22;12634;50.852;5.676;2023-08-17T11:15:40;22.60;99.90
24468;DHT22;12634;50.852;5.676;2023-08-17T11:18:11;22.40;99.90
24468;DHT22;12634;50.852;5.676;2023-08-17T11:20:40;21.90;99.90
24468;DHT22;12634;50.852;5.676;2023-08-17T11:23:10;22.00;99.90
24468;DHT22;12634;50.852;5.676;2023-08-17T11:25:37;21.90;99.90
24468;DHT22;12634;50.852;5.676;2023-08-17T11:28:07;21.80;99.90
24468;DHT22;12634;50.852;5.676;2023-08-17T11:30:37;22.00;99.90
24468;DHT22;12634;50.852;5.676;2023-08-17T11:33:06;22.30;99.90
24468;DHT22;12634;50.852;5.676;2023-08-17T11:35:33;22.50;99.90
24468;DHT22;12634;50.852;5.676;2023-08-17T11:38:01;22.60;99.90
24468;DHT22;12634;50.852;5.676;2023-08-17T11:40:29;22.90;99.90
24468;DHT22;12634;50.852;5.676;2023-08-17T11:42:57;23.00;99.90
24468;DHT22;12634;50.852;5.676;2023-08-17T11:45:25;23.00;99.90
24468;DHT22;12634;50.852;5.676;2023-08-17T11:47:53;23.00;99.90
24468;DHT22;12634;50.852;5.676;2023-08-17T11:50:20;22.80;99.90
24468;DHT22;12634;50.852;5.676;2023-08-17T11:52:47;22.70;99.90
24468;DHT22;12634;50.852;5.676;2023-08-17T11:55:16;22.60;99.90
24468;DHT22;12634;50.852;5.676;2023-08-17T11:57:45;22.60;99.90
24468;DHT22;12634;50.852;5.676;2023-08-17T12:00:18;22.50;99.90
24468;DHT22;12634;50.852;5.676;2023-08-17T12:02:47;22.30;99.90
24468;DHT22;12634;50.852;5.676;2023-08-17T12:05:21;22.30;99.90
24468;DHT22;12634;50.852;5.676;2023-08-17T12:07:49;22.40;99.90
24468;DHT22;12634;50.852;5.676;2023-08-17T12:10:18;22.50;99.90
24468;DHT22;12634;50.852;5.676;2023-08-17T12:12:47;22.60;99.90
24468;DHT22;12634;50.852;5.676;2023-08-17T12:15:15;22.80;99.90
24468;DHT22;12634;50.852;5.676;2023-08-17T12:17:45;22.80;99.90
24468;DHT22;12634;50.852;5.676;2023-08-17T12:20:16;23.00;99.90
24468;DHT22;12634;50.852;5.676;2023-08-17T12:22:46;23.10;99.90
24468;DHT22;12634;50.852;5.676;2023-08-17T12:25:13;23.20;99.90
24468;DHT22;12634;50.852;5.676;2023-08-17T12:27:41;23.40;99.90
24468;DHT22;12634;50.852;5.676;2023-08-17T12:30:12;23.70;99.90
24468;DHT22;12634;50.852;5.676;2023-08-17T12:32:40;24.40;99.90
24468;DHT22;12634;50.852;5.676;2023-08-17T12:35:07;24.70;99.90
24468;DHT22;12634;50.852;5.676;2023-08-17T12:37:35;24.40;99.90
24468;DHT22;12634;50.852;5.676;2023-08-17T12:40:04;24.00;99.90
24468;DHT22;12634;50.852;5.676;2023-08-17T12:42:31;24.10;99.90
24468;DHT22;12634;50.852;5.676;2023-08-17T12:44:59;24.40;99.90
24468;DHT22;12634;50.852;5.676;2023-08-17T12:47:26;25.20;99.90
24468;DHT22;12634;50.852;5.676;2023-08-17T12:49:53;25.30;99.90
24468;DHT22;12634;50.852;5.676;2023-08-17T12:52:20;25.50;99.90
24468;DHT22;12634;50.852;5.676;2023-08-17T12:54:47;25.00;99.90
24468;DHT22;12634;50.852;5.676;2023-08-17T12:57:16;24.90;99.90
24468;DHT22;12634;50.852;5.676;2023-08-17T12:59:43;24.20;99.90
24468;DHT22;12634;50.852;5.676;2023-08-17T13:02:11;23.70;99.90
24468;DHT22;12634;50.852;5.676;2023-08-17T13:04:39;23.60;99.90
24468;DHT22;12634;50.852;5.676;2023-08-17T13:07:06;23.80;99.90
24468;DHT22;12634;50.852;5.676;2023-08-17T13:09:33;23.60;99.90
24468;DHT22;12634;50.852;5.676;2023-08-17T13:12:00;23.00;99.90
24468;DHT22;12634;50.852;5.676;2023-08-17T13:14:29;23.00;99.90
24468;DHT22;12634;50.852;5.676;2023-08-17T13:16:56;23.00;99.90
24468;DHT22;12634;50.852;5.676;2023-08-17T13:19:23;23.10;99.90
24468;DHT22;12634;50.852;5.676;2023-08-17T13:21:50;22.80;99.90
24468;DHT22;12634;50.852;5.676;2023-08-17T13:24:18;23.00;99.90
24468;DHT22;12634;50.852;5.676;2023-08-17T13:26:45;22.60;99.90
24468;DHT22;12634;50.852;5.676;2023-08-17T13:29:12;22.70;99.90
24468;DHT22;12634;50.852;5.676;2023-08-17T13:31:41;22.80;99.90
24468;DHT22;12634;50.852;5.676;2023-08-17T13:34:08;22.80;99.90
24468;DHT22;12634;50.852;5.676;2023-08-17T13:36:37;22.50;99.90
24468;DHT22;12634;50.852;5.676;2023-08-17T13:39:04;22.10;99.90
24468;DHT22;12634;50.852;5.676;2023-08-17T13:41:31;22.10;99.90
24468;DHT22;12634;50.852;5.676;2023-08-17T13:43:59;22.30;99.90
24468;DHT22;12634;50.852;5.676;2023-08-17T13:46:28;22.60;99.90
24468;DHT22;12634;50.852;5.676;2023-08-17T13:48:56;22.90;99.90
24468;DHT22;12634;50.852;5.676;2023-08-17T13:51:24;22.90;99.90
24468;DHT22;12634;50.852;5.676;2023-08-17T13:53:51;22.70;99.90
24468;DHT22;12634;50.852;5.676;2023-08-17T13:56:19;22.70;99.90
24468;DHT22;12634;50.852;5.676;2023-08-17T13:58:46;22.60;99.90
24468;DHT22;12634;50.852;5.676;2023-08-17T14:01:13;22.50;99.90
24468;DHT22;12634;50.852;5.676;2023-08-17T14:03:40;22.50;99.90
24468;DHT22;12634;50.852;5.676;2023-08-17T14:06:10;22.60;99.90
24468;DHT22;12634;50.852;5.676;2023-08-17T14:08:37;22.50;99.90
24468;DHT22;12634;50.852;5.676;2023-08-17T14:11:04;22.70;99.90
24468;DHT22;12634;50.852;5.676;2023-08-17T14:13:32;23.10;99.90
24468;DHT22;12634;50.852;5.676;2023-08-17T14:15:59;23.40;99.90
24468;DHT22;12634;50.852;5.676;2023-08-17T14:18:27;23.60;99.90
24468;DHT22;12634;50.852;5.676;2023-08-17T14:20:54;24.10;99.90
24468;DHT22;12634;50.852;5.676;2023-08-17T14:23:23;24.80;99.90
24468;DHT22;12634;50.852;5.676;2023-08-17T14:25:50;25.50;99.90
24468;DHT22;12634;50.852;5.676;2023-08-17T14:28:18;26.20;99.90
24468;DHT22;12634;50.852;5.676;2023-08-17T14:30:45;26.60;99.90
24468;DHT22;12634;50.852;5.676;2023-08-17T14:33:13;26.90;99.90
24468;DHT22;12634;50.852;5.676;2023-08-17T14:35:41;27.60;99.90
24468;DHT22;12634;50.852;5.676;2023-08-17T14:38:08;27.90;99.90
24468;DHT22;12634;50.852;5.676;2023-08-17T14:40:42;28.00;99.90
24468;DHT22;12634;50.852;5.676;2023-08-17T14:43:10;28.00;99.90
24468;DHT22;12634;50.852;5.676;2023-08-17T14:45:39;28.40;99.90
24468;DHT22;12634;50.852;5.676;2023-08-17T14:48:06;28.00;99.90
24468;DHT22;12634;50.852;5.676;2023-08-17T14:50:33;27.90;99.90
24468;DHT22;12634;50.852;5.676;2023-08-17T14:53:01;26.60;99.90
24468;DHT22;12634;50.852;5.676;2023-08-17T14:55:29;25.60;99.90
24468;DHT22;12634;50.852;5.676;2023-08-17T14:57:58;26.00;99.90
24468;DHT22;12634;50.852;5.676;2023-08-17T15:00:26;25.40;99.90
24468;DHT22;12634;50.852;5.676;2023-08-17T15:02:56;25.20;99.90
24468;DHT22;12634;50.852;5.676;2023-08-17T15:05:24;25.30;99.90
24468;DHT22;12634;50.852;5.676;2023-08-17T15:07:51;25.50;99.90
24468;DHT22;12634;50.852;5.676;2023-08-17T15:10:18;25.10;99.90
24468;DHT22;12634;50.852;5.676;2023-08-17T15:12:45;24.70;99.90
24468;DHT22;12634;50.852;5.676;2023-08-17T15:15:14;24.80;99.90
24468;DHT22;12634;50.852;5.676;2023-08-17T15:17:41;24.50;99.90
24468;DHT22;12634;50.852;5.676;2023-08-17T15:20:08;24.30;99.90
24468;DHT22;12634;50.852;5.676;2023-08-17T15:22:36;24.20;99.90
24468;DHT22;12634;50.852;5.676;2023-08-17T15:25:04;24.10;99.90
24468;DHT22;12634;50.852;5.676;2023-08-17T15:27:31;23.80;99.90
24468;DHT22;12634;50.852;5.676;2023-08-17T15:29:58;23.50;99.90
24468;DHT22;12634;50.852;5.676;2023-08-17T15:32:27;23.50;99.90
24468;DHT22;12634;50.852;5.676;2023-08-17T15:34:54;23.20;99.90